createdAt,value
2018-06-16T00:01:06.346Z,6.50
2018-06-16T00:03:34.751Z,7.53
2018-06-16T00:06:03.234Z,6.53
2018-06-16T00:08:31.653Z,6.83
2018-06-16T00:10:59.904Z,7.43
2018-06-16T00:13:28.360Z,7.47
2018-06-16T00:15:57.078Z,6.70
2018-06-16T00:18:25.495Z,7.00
2018-06-16T00:20:53.886Z,6.23
2018-06-16T00:23:22.346Z,7.10
2018-06-16T00:25:50.749Z,6.60
2018-06-16T00:28:19.276Z,7.30
2018-06-16T00:30:48.052Z,6.73
2018-06-16T00:33:16.476Z,6.70
2018-06-16T00:35:44.890Z,6.00
2018-06-16T00:38:13.285Z,6.30
2018-06-16T00:40:41.692Z,6.77
2018-06-16T00:43:10.145Z,6.27
2018-06-16T00:45:38.549Z,5.87
2018-06-16T00:48:07.292Z,6.53
2018-06-16T00:50:35.692Z,6.33
2018-06-16T00:53:04.115Z,6.60
2018-06-16T00:55:32.549Z,6.60
2018-06-16T00:58:01.751Z,6.83
2018-06-16T01:00:30.410Z,6.27
2018-06-16T01:02:58.816Z,6.23
2018-06-16T01:05:27.232Z,7.17
2018-06-16T01:07:55.672Z,6.50
2018-06-16T01:10:24.074Z,6.30
2018-06-16T01:12:52.481Z,6.50
2018-06-16T01:15:20.969Z,6.63
2018-06-16T01:17:49.444Z,6.17
2018-06-16T01:20:17.910Z,6.73
2018-06-16T01:22:46.307Z,6.47
2018-06-16T01:25:14.696Z,6.73
2018-06-16T01:27:43.146Z,6.17
2018-06-16T01:30:11.566Z,6.57
2018-06-16T01:32:40.037Z,7.07
2018-06-16T01:35:08.436Z,6.90
2018-06-16T01:37:36.854Z,7.53
2018-06-16T01:40:05.478Z,6.33
2018-06-16T01:42:33.887Z,7.13
2018-06-16T01:45:02.293Z,7.27
2018-06-16T01:47:31.741Z,6.30
2018-06-16T01:50:00.164Z,6.53
2018-06-16T01:52:28.600Z,7.17
2018-06-16T01:54:57.067Z,6.97
2018-06-16T01:57:25.657Z,6.43
2018-06-16T01:59:54.045Z,7.37
2018-06-16T02:02:22.453Z,6.60
2018-06-16T02:04:51.522Z,6.83
2018-06-16T02:07:19.932Z,6.57
2018-06-16T02:09:48.354Z,7.27
2018-06-16T02:12:16.739Z,7.33
2018-06-16T02:14:45.177Z,7.93
2018-06-16T02:17:13.611Z,6.97
2018-06-16T02:19:42.079Z,7.23
2018-06-16T02:22:10.537Z,6.97
2018-06-16T02:24:38.962Z,8.13
2018-06-16T02:27:07.797Z,7.47
2018-06-16T02:29:36.183Z,7.23
2018-06-16T02:32:04.588Z,7.60
2018-06-16T02:34:33.077Z,7.27
2018-06-16T02:37:01.512Z,6.83
2018-06-16T02:39:29.953Z,7.60
2018-06-16T02:41:58.367Z,7.40
2018-06-16T02:44:26.799Z,7.40
2018-06-16T02:46:56.448Z,7.53
2018-06-16T02:49:24.917Z,6.97
2018-06-16T02:51:53.310Z,7.30
2018-06-16T02:54:21.724Z,6.90
2018-06-16T02:56:50.234Z,7.27
2018-06-16T02:59:18.665Z,7.87
2018-06-16T03:01:47.120Z,7.33
2018-06-16T03:04:15.553Z,7.03
2018-06-16T03:06:43.984Z,7.60
2018-06-16T03:09:12.414Z,8.67
2018-06-16T03:11:40.824Z,8.63
2018-06-16T03:14:09.239Z,10.13
2018-06-16T03:16:37.661Z,12.10
2018-06-16T03:19:06.118Z,10.83
2018-06-16T03:21:34.545Z,10.57
2018-06-16T03:24:02.945Z,9.37
2018-06-16T03:26:31.480Z,10.63
2018-06-16T03:29:00.581Z,10.00
2018-06-16T03:31:28.992Z,9.37
2018-06-16T03:33:57.409Z,8.93
2018-06-16T03:36:25.885Z,9.77
2018-06-16T03:38:54.281Z,9.07
2018-06-16T03:41:22.885Z,10.53
2018-06-16T03:43:51.905Z,10.93
2018-06-16T03:46:20.309Z,9.10
2018-06-16T03:48:48.729Z,9.07
2018-06-16T03:51:17.186Z,8.63
2018-06-16T03:53:45.592Z,8.87
2018-06-16T03:56:14.046Z,9.07
2018-06-16T03:58:42.436Z,8.53
2018-06-16T04:01:10.899Z,8.70
2018-06-16T04:03:39.530Z,8.13
2018-06-16T04:06:07.964Z,7.87
2018-06-16T04:08:36.434Z,7.70
2018-06-16T04:11:04.850Z,8.23
2018-06-16T04:13:33.252Z,8.23
2018-06-16T04:16:01.937Z,7.57
2018-06-16T04:18:30.328Z,8.80
2018-06-16T04:20:58.777Z,7.43
2018-06-16T04:23:28.084Z,8.03
2018-06-16T04:25:56.477Z,7.67
2018-06-16T04:28:25.892Z,7.97
2018-06-16T04:30:54.628Z,7.17
2018-06-16T04:33:23.082Z,7.20
2018-06-16T04:35:51.501Z,8.10
2018-06-16T04:38:19.940Z,7.73
2018-06-16T04:40:48.373Z,6.40
2018-06-16T04:43:16.452Z,6.60
2018-06-16T04:45:44.945Z,7.03
2018-06-16T04:48:13.327Z,7.53
2018-06-16T04:50:41.859Z,7.47
2018-06-16T04:53:10.284Z,6.90
2018-06-16T04:55:38.787Z,6.50
2018-06-16T04:58:07.321Z,6.60
2018-06-16T05:00:35.708Z,6.10
2018-06-16T05:03:04.130Z,6.73
2018-06-16T05:05:32.548Z,6.43
2018-06-16T05:08:01.011Z,6.50
2018-06-16T05:10:29.461Z,6.83
2018-06-16T05:12:57.891Z,6.90
2018-06-16T05:15:26.326Z,5.80
2018-06-16T05:17:54.734Z,7.77
2018-06-16T05:20:23.123Z,7.57
2018-06-16T05:22:51.601Z,6.57
2018-06-16T05:25:20.048Z,7.23
2018-06-16T05:27:48.525Z,6.93
2018-06-16T05:30:17.265Z,6.23
2018-06-16T05:32:45.709Z,6.40
2018-06-16T05:35:14.269Z,6.40
2018-06-16T05:37:42.721Z,6.03
2018-06-16T05:40:11.185Z,7.77
2018-06-16T05:42:39.344Z,6.20
2018-06-16T05:45:07.969Z,5.80
2018-06-16T05:47:36.432Z,6.33
2018-06-16T05:50:04.906Z,6.43
2018-06-16T05:52:33.356Z,6.03
2018-06-16T05:55:02.037Z,6.43
2018-06-16T05:57:30.510Z,6.27
2018-06-16T05:59:58.981Z,6.77
2018-06-16T06:02:27.423Z,7.47
2018-06-16T06:04:55.921Z,6.77
2018-06-16T06:07:24.560Z,7.63
2018-06-16T06:09:52.659Z,8.70
2018-06-16T06:12:21.085Z,7.70
2018-06-16T06:14:49.534Z,7.50
2018-06-16T06:17:18.150Z,7.33
2018-06-16T06:19:46.602Z,7.60
2018-06-16T06:22:15.025Z,7.67
2018-06-16T06:24:43.721Z,7.13
2018-06-16T06:27:12.261Z,8.00
2018-06-16T06:29:40.732Z,7.60
2018-06-16T06:32:09.203Z,7.17
2018-06-16T06:34:37.586Z,7.40
2018-06-16T06:37:06.091Z,10.20
2018-06-16T06:39:34.545Z,9.57
2018-06-16T06:42:02.933Z,7.50
2018-06-16T06:44:31.238Z,6.80
2018-06-16T06:46:59.793Z,8.67
2018-06-16T06:49:28.236Z,9.20
2018-06-16T06:51:56.677Z,10.37
2018-06-16T06:54:25.119Z,6.90
2018-06-16T06:56:58.773Z,7.07
2018-06-16T06:59:27.214Z,7.40
2018-06-16T07:01:55.666Z,5.90
2018-06-16T07:04:24.063Z,5.33
2018-06-16T07:06:52.590Z,4.47
2018-06-16T07:09:21.057Z,5.70
2018-06-16T07:11:49.506Z,4.53
2018-06-16T07:14:17.952Z,4.30
2018-06-16T07:16:46.687Z,4.37
2018-06-16T07:19:15.101Z,5.20
2018-06-16T07:21:43.643Z,4.80
2018-06-16T07:24:12.132Z,5.53
2018-06-16T07:26:40.551Z,4.50
2018-06-16T07:29:09.295Z,4.77
2018-06-16T07:31:37.828Z,5.53
2018-06-16T07:34:06.261Z,4.92
2018-06-16T07:36:34.803Z,5.60
2018-06-16T07:39:03.393Z,6.07
2018-06-16T07:41:31.875Z,5.57
2018-06-16T07:44:00.364Z,5.55
2018-06-16T07:46:28.930Z,6.47
2018-06-16T07:48:57.510Z,5.45
2018-06-16T07:51:26.304Z,6.20
2018-06-16T07:53:54.878Z,5.78
2018-06-16T07:56:23.589Z,6.10
2018-06-16T07:58:52.049Z,6.08
2018-06-16T08:01:20.548Z,7.05
2018-06-16T08:03:48.944Z,5.62
2018-06-16T08:06:20.049Z,6.92
2018-06-16T08:08:48.498Z,6.08
2018-06-16T08:11:16.883Z,6.08
2018-06-16T08:13:45.296Z,6.55
2018-06-16T08:16:13.781Z,6.62
2018-06-16T08:18:42.189Z,5.97
2018-06-16T08:21:10.634Z,5.65
2018-06-16T08:23:39.341Z,6.17
2018-06-16T08:26:07.968Z,5.90
2018-06-16T08:28:36.451Z,5.22
2018-06-16T08:31:04.883Z,5.35
2018-06-16T08:33:32.970Z,5.15
2018-06-16T08:36:01.405Z,5.22
2018-06-16T08:38:30.108Z,5.05
2018-06-16T08:40:58.497Z,5.65
2018-06-16T08:43:26.978Z,5.10
2018-06-16T08:45:55.398Z,5.23
2018-06-16T08:48:23.856Z,4.53
2018-06-16T08:50:52.268Z,5.77
2018-06-16T08:53:20.761Z,5.83
2018-06-16T08:55:49.216Z,5.80
2018-06-16T08:58:17.652Z,5.80
2018-06-16T09:00:46.071Z,5.45
2018-06-16T09:03:14.486Z,5.80
2018-06-16T09:05:42.930Z,5.87
2018-06-16T09:08:11.424Z,5.58
2018-06-16T09:10:39.881Z,5.65
2018-06-16T09:13:08.302Z,4.92
2018-06-16T09:15:36.825Z,5.03
2018-06-16T09:18:05.689Z,6.85
2018-06-16T09:33:38.567Z,4.65
2018-06-16T09:36:06.964Z,5.30
2018-06-16T09:38:35.488Z,4.83
2018-06-16T09:41:03.888Z,3.52
2018-06-16T09:43:32.350Z,4.62
2018-06-16T09:46:00.781Z,3.90
2018-06-16T09:48:30.030Z,4.30
2018-06-16T09:50:58.561Z,4.67
2018-06-16T09:53:26.984Z,4.28
2018-06-16T09:55:55.419Z,4.62
2018-06-16T09:58:23.828Z,4.58
2018-06-16T10:00:52.300Z,5.10
2018-06-16T10:03:20.861Z,4.55
2018-06-16T10:05:49.238Z,4.03
2018-06-16T10:08:17.708Z,3.45
2018-06-16T10:10:46.179Z,5.50
2018-06-16T10:13:14.580Z,3.05
2018-06-16T10:15:43.042Z,3.10
2018-06-16T10:18:11.466Z,3.37
2018-06-16T10:20:39.603Z,3.92
2018-06-16T10:23:08.060Z,4.25
2018-06-16T10:25:36.534Z,4.50
2018-06-16T10:28:05.064Z,3.58
2018-06-16T10:30:33.488Z,2.75
2018-06-16T10:33:01.937Z,3.22
2018-06-16T10:35:30.331Z,4.10
2018-06-16T10:37:58.757Z,4.50
2018-06-16T10:40:27.280Z,3.40
2018-06-16T10:42:55.676Z,3.77
2018-06-16T10:45:24.224Z,4.70
2018-06-16T10:47:52.612Z,4.25
2018-06-16T10:50:21.096Z,3.62
2018-06-16T10:52:49.532Z,3.58
2018-06-16T10:55:17.995Z,2.83
2018-06-16T10:57:46.440Z,4.47
2018-06-16T11:00:14.917Z,3.70
2018-06-16T11:02:43.677Z,3.98
2018-06-16T11:05:12.080Z,2.90
2018-06-16T11:07:40.518Z,2.83
2018-06-16T11:10:09.231Z,3.75
2018-06-16T11:12:37.651Z,3.47
2018-06-16T11:15:06.339Z,4.45
2018-06-16T11:17:34.800Z,2.92
2018-06-16T11:20:03.292Z,5.03
2018-06-16T11:22:31.738Z,3.30
2018-06-16T11:25:00.770Z,3.65
2018-06-16T11:27:29.479Z,3.17
2018-06-16T11:29:58.066Z,3.12
2018-06-16T11:32:26.460Z,3.20
2018-06-16T11:34:54.877Z,3.40
2018-06-16T11:37:23.338Z,2.93
2018-06-16T11:39:51.801Z,3.45
2018-06-16T11:42:20.235Z,3.40
2018-06-16T11:44:48.680Z,3.20
2018-06-16T11:47:17.098Z,2.83
2018-06-16T11:49:45.584Z,2.80
2018-06-16T11:52:14.302Z,3.03
2018-06-16T11:54:42.782Z,2.83
2018-06-16T11:57:11.306Z,2.80
2018-06-16T11:59:39.751Z,3.13
2018-06-16T12:02:08.204Z,3.40
2018-06-16T12:04:36.740Z,2.50
2018-06-16T12:07:05.399Z,2.63
2018-06-16T12:09:33.835Z,2.90
2018-06-16T12:12:02.302Z,3.10
2018-06-16T12:14:30.723Z,3.00
2018-06-16T12:16:59.177Z,2.63
2018-06-16T12:19:27.622Z,2.87
2018-06-16T12:21:56.010Z,2.70
2018-06-16T12:24:24.412Z,2.73
2018-06-16T12:26:53.938Z,2.43
2018-06-16T12:29:22.371Z,3.07
2018-06-16T12:31:50.805Z,3.00
2018-06-16T12:34:20.946Z,2.60
2018-06-16T12:36:49.391Z,2.80
2018-06-16T12:39:18.019Z,2.90
2018-06-16T12:41:46.445Z,1.97
2018-06-16T12:44:14.869Z,2.60
2018-06-16T12:46:43.381Z,2.80
2018-06-16T12:49:11.787Z,2.40
2018-06-16T12:51:40.278Z,2.67
2018-06-16T12:54:08.730Z,2.70
2018-06-16T12:56:37.488Z,2.90
2018-06-16T12:59:05.973Z,2.90
2018-06-16T13:01:34.374Z,3.60
2018-06-16T13:04:02.791Z,3.30
2018-06-16T13:06:31.223Z,3.33
2018-06-16T13:08:59.687Z,3.97
2018-06-16T13:11:28.142Z,3.87
2018-06-16T13:13:56.967Z,4.37
2018-06-16T13:16:25.417Z,4.33
2018-06-16T13:18:53.867Z,4.70
2018-06-16T13:21:22.376Z,5.40
2018-06-16T13:23:50.781Z,4.63
2018-06-16T13:26:19.222Z,4.77
2018-06-16T13:28:47.677Z,4.87
2018-06-16T13:31:16.073Z,4.50
2018-06-16T13:33:44.762Z,5.73
2018-06-16T13:36:13.412Z,4.40
2018-06-16T13:38:41.924Z,4.33
2018-06-16T13:41:10.377Z,4.10
2018-06-16T13:43:39.533Z,4.40
2018-06-16T13:46:07.989Z,4.30
2018-06-16T13:48:36.601Z,3.53
2018-06-16T13:51:05.137Z,4.90
2018-06-16T13:53:33.886Z,3.90
2018-06-16T13:56:02.288Z,3.80
2018-06-16T13:58:30.809Z,4.50
2018-06-16T14:00:59.320Z,4.60
2018-06-16T14:03:27.757Z,4.50
2018-06-16T14:05:56.844Z,4.63
2018-06-16T14:08:25.355Z,4.50
2018-06-16T14:10:54.084Z,4.73
2018-06-16T14:13:22.534Z,3.93
2018-06-16T14:15:51.884Z,4.00
2018-06-16T14:18:20.338Z,4.50
2018-06-16T14:20:48.797Z,4.90
2018-06-16T14:23:17.452Z,4.90
2018-06-16T14:25:46.045Z,3.70
2018-06-16T14:28:14.445Z,4.07
2018-06-16T14:30:42.910Z,3.70
2018-06-16T14:33:11.312Z,4.10
2018-06-16T14:35:39.713Z,3.20
2018-06-16T14:38:08.333Z,3.43
2018-06-16T14:40:36.729Z,4.03
2018-06-16T14:43:05.264Z,3.23
2018-06-16T14:45:33.783Z,3.47
2018-06-16T14:48:02.332Z,3.90
2018-06-16T14:50:30.945Z,3.40
2018-06-16T14:52:59.659Z,2.97
2018-06-16T14:55:28.112Z,3.60
2018-06-16T14:57:56.491Z,3.33
2018-06-16T15:00:25.433Z,3.63
2018-06-16T15:02:53.927Z,4.30
2018-06-16T15:05:22.350Z,3.70
2018-06-16T15:07:50.797Z,4.07
2018-06-16T15:10:19.193Z,9.07
2018-06-16T15:12:47.777Z,6.03
2018-06-16T15:15:16.239Z,4.63
2018-06-16T15:17:44.882Z,4.73
2018-06-16T15:20:13.594Z,4.37
2018-06-16T15:22:42.025Z,4.80
2018-06-16T15:25:10.700Z,6.40
2018-06-16T15:27:39.117Z,3.87
2018-06-16T15:30:07.776Z,6.97
2018-06-16T15:32:36.260Z,3.83
2018-06-16T15:35:04.805Z,4.67
2018-06-16T15:37:33.236Z,2.93
2018-06-16T15:40:01.630Z,3.17
2018-06-16T15:42:30.112Z,3.40
2018-06-16T15:44:58.500Z,3.40
2018-06-16T15:47:27.032Z,3.43
2018-06-16T15:49:55.469Z,3.77
2018-06-16T15:52:24.199Z,2.90
2018-06-16T15:54:52.664Z,3.07
2018-06-16T15:57:21.080Z,3.93
2018-06-16T15:59:49.496Z,4.20
2018-06-16T16:02:17.994Z,4.40
2018-06-16T16:04:47.282Z,3.23
2018-06-16T16:07:15.700Z,3.33
2018-06-16T16:09:44.129Z,3.87
2018-06-16T16:12:12.600Z,3.80
2018-06-16T16:14:41.137Z,3.57
2018-06-16T16:17:09.629Z,4.23
2018-06-16T16:19:38.126Z,3.50
2018-06-16T16:22:07.676Z,4.63
2018-06-16T16:24:36.385Z,4.10
2018-06-16T16:27:05.032Z,4.20
2018-06-16T16:29:33.450Z,7.43
2018-06-16T16:32:02.124Z,6.07
2018-06-16T16:34:30.586Z,6.10
2018-06-16T16:36:59.072Z,6.60
2018-06-16T16:39:27.509Z,6.63
2018-06-16T16:41:55.992Z,6.57
2018-06-16T16:44:24.729Z,6.80
2018-06-16T16:46:53.324Z,6.03
2018-06-16T16:49:22.631Z,6.50
2018-06-16T16:51:51.138Z,6.27
2018-06-16T16:54:19.557Z,9.97
2018-06-16T16:56:47.978Z,8.87
2018-06-16T16:59:16.472Z,6.00
2018-06-16T17:01:44.913Z,7.20
2018-06-16T17:04:13.368Z,6.73
2018-06-16T17:06:41.799Z,6.47
2018-06-16T17:09:11.470Z,7.03
2018-06-16T17:11:39.964Z,6.47
2018-06-16T17:14:08.521Z,5.97
2018-06-16T17:16:36.987Z,6.17
2018-06-16T17:19:05.658Z,6.30
2018-06-16T17:21:34.093Z,6.20
2018-06-16T17:24:02.516Z,6.83
2018-06-16T17:26:30.957Z,6.13
2018-06-16T17:28:59.573Z,6.23
2018-06-16T17:31:28.104Z,6.30
2018-06-16T17:33:56.537Z,5.77
2018-06-16T17:36:25.010Z,5.93
2018-06-16T17:38:53.674Z,6.30
2018-06-16T17:41:22.159Z,6.00
2018-06-16T17:43:51.756Z,5.90
2018-06-16T17:46:20.578Z,5.60
2018-06-16T17:48:49.477Z,6.23
2018-06-16T17:51:18.577Z,5.97
2018-06-16T17:53:47.149Z,6.20
2018-06-16T17:56:15.597Z,5.53
2018-06-16T17:58:45.434Z,5.40
2018-06-16T18:01:13.833Z,6.47
2018-06-16T18:03:43.604Z,6.37
2018-06-16T18:06:13.757Z,7.20
2018-06-16T18:08:43.575Z,6.00
2018-06-16T18:11:13.633Z,7.10
2018-06-16T18:13:42.192Z,7.07
2018-06-16T18:16:11.696Z,7.63
2018-06-16T18:18:41.685Z,8.17
2018-06-16T18:21:10.417Z,9.20
2018-06-16T18:23:39.852Z,8.63
2018-06-16T18:26:09.653Z,9.23
2018-06-16T18:28:38.105Z,10.43
2018-06-16T18:31:06.553Z,11.23
2018-06-16T18:33:35.027Z,11.00
2018-06-16T18:36:03.469Z,11.93
2018-06-16T18:38:31.882Z,12.70
2018-06-16T18:41:00.610Z,11.43
2018-06-16T18:43:29.013Z,19.60
2018-06-16T18:45:57.613Z,11.77
2018-06-16T18:48:26.045Z,13.13
2018-06-16T18:50:54.461Z,14.90
2018-06-16T18:53:22.925Z,12.70
2018-06-16T18:55:51.432Z,11.93
2018-06-16T18:58:19.861Z,12.23
2018-06-16T19:00:48.611Z,11.83
2018-06-16T19:03:16.987Z,14.63
2018-06-16T19:05:45.505Z,18.07
2018-06-16T19:08:13.922Z,14.87
2018-06-16T19:10:42.427Z,18.07
2018-06-16T19:13:10.892Z,15.93
2018-06-16T19:15:39.323Z,14.23
2018-06-16T19:18:07.851Z,13.10
2018-06-16T19:20:36.404Z,13.43
2018-06-16T19:23:05.290Z,15.97
2018-06-16T19:25:33.632Z,16.90
2018-06-16T19:28:01.748Z,16.83
2018-06-16T19:30:30.164Z,17.70
2018-06-16T19:32:58.624Z,19.43
2018-06-16T19:35:27.110Z,20.57
2018-06-16T19:37:55.533Z,18.70
2018-06-16T19:40:23.965Z,19.03
2018-06-16T19:42:52.425Z,19.83
2018-06-16T19:45:20.863Z,19.27
2018-06-16T19:47:49.357Z,23.97
2018-06-16T19:50:17.787Z,26.50
2018-06-16T19:52:46.247Z,23.30
2018-06-16T19:55:14.739Z,27.50
2018-06-16T19:57:43.217Z,25.97
2018-06-16T20:00:11.794Z,18.67
2018-06-16T20:02:40.221Z,18.57
2018-06-16T20:05:08.651Z,16.70
2018-06-16T20:07:37.101Z,19.80
2018-06-16T20:10:06.223Z,19.60
2018-06-16T20:12:34.685Z,17.83
2018-06-16T20:15:03.162Z,16.17
2018-06-16T20:17:31.737Z,15.03
2018-06-16T20:20:00.154Z,15.97
2018-06-16T20:22:28.595Z,14.70
2018-06-16T20:24:57.835Z,14.10
2018-06-16T20:27:26.123Z,15.20
2018-06-16T20:29:54.690Z,14.77
2018-06-16T20:32:23.118Z,14.03
2018-06-16T20:34:51.550Z,12.83
2018-06-16T20:37:19.710Z,14.27
2018-06-16T20:39:48.128Z,13.33
2018-06-16T20:42:16.559Z,13.10
2018-06-16T20:44:45.152Z,12.97
2018-06-16T20:47:13.595Z,10.80
2018-06-16T20:49:42.189Z,11.30
2018-06-16T20:52:10.654Z,11.40
2018-06-16T20:54:39.074Z,11.87
2018-06-16T20:57:07.568Z,11.13
2018-06-16T20:59:35.958Z,10.20
2018-06-16T21:02:04.556Z,10.00
2018-06-16T21:04:32.972Z,9.80
2018-06-16T21:07:01.484Z,10.53
2018-06-16T21:09:29.995Z,9.70
2018-06-16T21:11:58.490Z,9.67
2018-06-16T21:14:27.007Z,9.87
2018-06-16T21:16:55.565Z,10.07
2018-06-16T21:19:24.030Z,10.60
2018-06-16T21:21:52.509Z,10.73
2018-06-16T21:24:20.925Z,11.47
2018-06-16T21:26:49.725Z,11.07
2018-06-16T21:29:17.877Z,11.60
2018-06-16T21:31:46.300Z,11.50
2018-06-16T21:34:14.779Z,11.57
2018-06-16T21:36:43.330Z,10.57
2018-06-16T21:39:12.010Z,10.63
2018-06-16T21:41:40.662Z,10.70
2018-06-16T21:44:09.111Z,10.07
2018-06-16T21:46:37.585Z,11.37
2018-06-16T21:49:06.176Z,11.00
2018-06-16T21:51:34.569Z,11.67
2018-06-16T21:54:02.975Z,11.97
2018-06-16T21:56:31.510Z,11.33
2018-06-16T21:58:59.917Z,13.03
2018-06-16T22:01:33.327Z,12.73
2018-06-16T22:04:02.433Z,13.10
2018-06-16T22:06:30.942Z,15.13
2018-06-16T22:08:59.758Z,14.87
2018-06-16T22:11:28.189Z,15.20
2018-06-16T22:13:56.625Z,15.10
2018-06-16T22:16:25.073Z,16.10
2018-06-16T22:18:53.477Z,16.27
2018-06-16T22:21:21.908Z,17.70
2018-06-16T22:23:50.343Z,17.60
2018-06-16T22:26:18.782Z,18.33
2018-06-16T22:28:47.235Z,19.60
2018-06-16T22:31:15.676Z,18.83
2018-06-16T22:33:44.210Z,19.43
2018-06-16T22:36:12.640Z,20.23
2018-06-16T22:38:41.060Z,21.13
2018-06-16T22:41:09.502Z,23.63
2018-06-16T22:43:37.908Z,22.33
2018-06-16T22:46:06.592Z,22.63
2018-06-16T22:48:34.990Z,23.27
2018-06-16T22:51:03.389Z,22.07
2018-06-16T22:53:31.920Z,24.67
2018-06-16T22:56:00.357Z,21.63
2018-06-16T22:58:28.862Z,24.83
2018-06-16T23:00:57.305Z,23.80
2018-06-16T23:03:25.783Z,22.27
2018-06-16T23:05:54.224Z,22.30
2018-06-16T23:08:22.650Z,21.33
2018-06-16T23:10:51.115Z,21.30
2018-06-16T23:13:19.593Z,20.43
2018-06-16T23:15:48.237Z,19.90
2018-06-16T23:18:16.678Z,18.53
2018-06-16T23:20:45.743Z,19.53
2018-06-16T23:23:14.290Z,19.03
2018-06-16T23:25:42.708Z,19.03
2018-06-16T23:28:11.154Z,19.47
2018-06-16T23:30:39.640Z,20.00
2018-06-16T23:33:08.039Z,21.23
2018-06-16T23:35:36.428Z,21.87
2018-06-16T23:38:04.856Z,19.10
2018-06-16T23:40:33.273Z,20.23
2018-06-16T23:43:01.763Z,19.57
2018-06-16T23:45:30.274Z,19.70
2018-06-16T23:47:58.820Z,20.00
2018-06-16T23:50:27.216Z,22.40
2018-06-16T23:52:55.940Z,20.80
2018-06-16T23:55:24.352Z,22.27
2018-06-16T23:57:52.788Z,21.17
